sensor_id;sensor_type;location;lat;lon;timestamp;P1;durP1;ratioP1;P2;durP2;ratioP2
4638;SDS011;2332;38.646;-9.154;2024-02-04T00:00:52;66.27;;;37.27;;
4638;SDS011;2332;38.646;-9.154;2024-02-04T00:03:18;63.13;;;39.30;;
4638;SDS011;2332;38.646;-9.154;2024-02-04T00:05:44;67.50;;;38.50;;
4638;SDS011;2332;38.646;-9.154;2024-02-04T00:08:10;62.67;;;37.80;;
4638;SDS011;2332;38.646;-9.154;2024-02-04T00:10:37;63.77;;;36.83;;
4638;SDS011;2332;38.646;-9.154;2024-02-04T00:13:03;63.90;;;37.33;;
4638;SDS011;2332;38.646;-9.154;2024-02-04T00:15:28;68.60;;;36.93;;
4638;SDS011;2332;38.646;-9.154;2024-02-04T00:17:54;64.10;;;37.17;;
4638;SDS011;2332;38.646;-9.154;2024-02-04T00:20:19;66.10;;;36.10;;
4638;SDS011;2332;38.646;-9.154;2024-02-04T00:22:44;59.37;;;37.03;;
4638;SDS011;2332;38.646;-9.154;2024-02-04T00:25:10;67.33;;;38.27;;
4638;SDS011;2332;38.646;-9.154;2024-02-04T00:27:37;71.60;;;38.40;;
4638;SDS011;2332;38.646;-9.154;2024-02-04T00:30:02;65.40;;;39.30;;
4638;SDS011;2332;38.646;-9.154;2024-02-04T00:32:28;65.87;;;39.17;;
4638;SDS011;2332;38.646;-9.154;2024-02-04T00:34:53;63.73;;;39.50;;
4638;SDS011;2332;38.646;-9.154;2024-02-04T00:37:22;65.80;;;39.60;;
4638;SDS011;2332;38.646;-9.154;2024-02-04T00:39:47;60.77;;;40.07;;
4638;SDS011;2332;38.646;-9.154;2024-02-04T00:42:12;65.67;;;38.93;;
4638;SDS011;2332;38.646;-9.154;2024-02-04T00:44:38;66.57;;;38.87;;
4638;SDS011;2332;38.646;-9.154;2024-02-04T00:47:03;61.47;;;37.70;;
4638;SDS011;2332;38.646;-9.154;2024-02-04T00:49:29;64.90;;;37.90;;
4638;SDS011;2332;38.646;-9.154;2024-02-04T00:51:54;69.40;;;39.37;;
4638;SDS011;2332;38.646;-9.154;2024-02-04T00:54:19;71.30;;;39.20;;
4638;SDS011;2332;38.646;-9.154;2024-02-04T00:56:45;60.17;;;40.30;;
4638;SDS011;2332;38.646;-9.154;2024-02-04T00:59:10;59.93;;;37.80;;
4638;SDS011;2332;38.646;-9.154;2024-02-04T01:01:37;68.07;;;39.73;;
4638;SDS011;2332;38.646;-9.154;2024-02-04T01:04:02;62.90;;;40.33;;
4638;SDS011;2332;38.646;-9.154;2024-02-04T01:06:28;63.60;;;40.40;;
4638;SDS011;2332;38.646;-9.154;2024-02-04T01:08:55;64.33;;;39.60;;
4638;SDS011;2332;38.646;-9.154;2024-02-04T01:11:21;63.20;;;38.23;;
4638;SDS011;2332;38.646;-9.154;2024-02-04T01:13:46;59.50;;;37.53;;
4638;SDS011;2332;38.646;-9.154;2024-02-04T01:16:12;60.47;;;37.50;;
4638;SDS011;2332;38.646;-9.154;2024-02-04T01:18:37;62.03;;;36.40;;
4638;SDS011;2332;38.646;-9.154;2024-02-04T01:21:02;63.57;;;34.50;;
4638;SDS011;2332;38.646;-9.154;2024-02-04T01:23:28;53.83;;;35.67;;
4638;SDS011;2332;38.646;-9.154;2024-02-04T01:25:53;56.00;;;32.57;;
4638;SDS011;2332;38.646;-9.154;2024-02-04T01:28:19;56.90;;;33.70;;
4638;SDS011;2332;38.646;-9.154;2024-02-04T01:30:44;67.10;;;35.23;;
4638;SDS011;2332;38.646;-9.154;2024-02-04T01:33:09;56.37;;;32.77;;
4638;SDS011;2332;38.646;-9.154;2024-02-04T01:35:35;54.00;;;33.53;;
4638;SDS011;2332;38.646;-9.154;2024-02-04T01:38:00;58.77;;;33.93;;
4638;SDS011;2332;38.646;-9.154;2024-02-04T01:40:25;56.20;;;33.73;;
4638;SDS011;2332;38.646;-9.154;2024-02-04T01:42:51;54.83;;;30.57;;
4638;SDS011;2332;38.646;-9.154;2024-02-04T01:45:16;52.40;;;30.20;;
4638;SDS011;2332;38.646;-9.154;2024-02-04T01:47:42;52.87;;;30.80;;
4638;SDS011;2332;38.646;-9.154;2024-02-04T01:50:07;53.73;;;31.67;;
4638;SDS011;2332;38.646;-9.154;2024-02-04T01:52:33;50.90;;;30.63;;
4638;SDS011;2332;38.646;-9.154;2024-02-04T01:55:01;57.77;;;32.50;;
4638;SDS011;2332;38.646;-9.154;2024-02-04T01:57:28;55.10;;;32.10;;
4638;SDS011;2332;38.646;-9.154;2024-02-04T01:59:53;55.63;;;33.13;;
4638;SDS011;2332;38.646;-9.154;2024-02-04T02:02:21;55.13;;;33.07;;
4638;SDS011;2332;38.646;-9.154;2024-02-04T02:04:46;55.83;;;33.33;;
4638;SDS011;2332;38.646;-9.154;2024-02-04T02:07:12;53.17;;;32.77;;
4638;SDS011;2332;38.646;-9.154;2024-02-04T02:09:40;60.90;;;33.20;;
4638;SDS011;2332;38.646;-9.154;2024-02-04T02:12:16;54.93;;;32.33;;
4638;SDS011;2332;38.646;-9.154;2024-02-04T02:14:54;59.13;;;33.17;;
4638;SDS011;2332;38.646;-9.154;2024-02-04T02:17:24;60.70;;;32.20;;
4638;SDS011;2332;38.646;-9.154;2024-02-04T02:19:56;60.40;;;33.60;;
4638;SDS011;2332;38.646;-9.154;2024-02-04T02:22:29;60.07;;;32.60;;
4638;SDS011;2332;38.646;-9.154;2024-02-04T02:24:57;60.37;;;32.53;;
4638;SDS011;2332;38.646;-9.154;2024-02-04T02:27:24;58.80;;;33.00;;
4638;SDS011;2332;38.646;-9.154;2024-02-04T02:29:49;56.10;;;33.57;;
4638;SDS011;2332;38.646;-9.154;2024-02-04T02:32:14;60.30;;;32.83;;
4638;SDS011;2332;38.646;-9.154;2024-02-04T02:34:40;55.73;;;34.60;;
4638;SDS011;2332;38.646;-9.154;2024-02-04T02:39:32;60.53;;;32.23;;
4638;SDS011;2332;38.646;-9.154;2024-02-04T02:42:00;57.07;;;31.30;;
4638;SDS011;2332;38.646;-9.154;2024-02-04T02:44:26;53.80;;;30.93;;
4638;SDS011;2332;38.646;-9.154;2024-02-04T02:46:52;51.43;;;30.13;;
4638;SDS011;2332;38.646;-9.154;2024-02-04T02:49:19;48.10;;;29.70;;
4638;SDS011;2332;38.646;-9.154;2024-02-04T02:51:45;48.03;;;29.43;;
4638;SDS011;2332;38.646;-9.154;2024-02-04T02:54:10;53.70;;;29.00;;
4638;SDS011;2332;38.646;-9.154;2024-02-04T02:56:37;48.60;;;28.20;;
4638;SDS011;2332;38.646;-9.154;2024-02-04T02:59:02;53.57;;;28.63;;
4638;SDS011;2332;38.646;-9.154;2024-02-04T03:01:28;48.67;;;27.57;;
4638;SDS011;2332;38.646;-9.154;2024-02-04T03:03:54;45.07;;;26.13;;
4638;SDS011;2332;38.646;-9.154;2024-02-04T03:06:19;41.67;;;25.87;;
4638;SDS011;2332;38.646;-9.154;2024-02-04T03:08:45;38.93;;;24.77;;
4638;SDS011;2332;38.646;-9.154;2024-02-04T03:11:10;45.13;;;26.47;;
4638;SDS011;2332;38.646;-9.154;2024-02-04T03:13:37;48.13;;;24.93;;
4638;SDS011;2332;38.646;-9.154;2024-02-04T03:16:03;44.63;;;25.37;;
4638;SDS011;2332;38.646;-9.154;2024-02-04T03:18:28;42.87;;;24.87;;
4638;SDS011;2332;38.646;-9.154;2024-02-04T03:20:54;45.00;;;24.90;;
4638;SDS011;2332;38.646;-9.154;2024-02-04T03:23:19;40.73;;;24.47;;
4638;SDS011;2332;38.646;-9.154;2024-02-04T03:25:45;41.03;;;25.10;;
4638;SDS011;2332;38.646;-9.154;2024-02-04T03:28:10;43.43;;;24.47;;
4638;SDS011;2332;38.646;-9.154;2024-02-04T03:30:35;41.93;;;24.00;;
4638;SDS011;2332;38.646;-9.154;2024-02-04T03:33:01;45.63;;;26.03;;
4638;SDS011;2332;38.646;-9.154;2024-02-04T03:35:26;44.47;;;23.90;;
4638;SDS011;2332;38.646;-9.154;2024-02-04T03:37:51;44.20;;;25.23;;
4638;SDS011;2332;38.646;-9.154;2024-02-04T03:40:17;41.47;;;25.30;;
4638;SDS011;2332;38.646;-9.154;2024-02-04T03:42:44;49.03;;;26.03;;
4638;SDS011;2332;38.646;-9.154;2024-02-04T03:45:10;41.60;;;24.50;;
4638;SDS011;2332;38.646;-9.154;2024-02-04T03:47:35;55.23;;;25.70;;
4638;SDS011;2332;38.646;-9.154;2024-02-04T03:50:00;38.80;;;24.20;;
4638;SDS011;2332;38.646;-9.154;2024-02-04T03:52:26;47.27;;;25.40;;
4638;SDS011;2332;38.646;-9.154;2024-02-04T03:54:51;45.30;;;25.67;;
4638;SDS011;2332;38.646;-9.154;2024-02-04T03:57:16;42.20;;;24.30;;
4638;SDS011;2332;38.646;-9.154;2024-02-04T03:59:45;44.83;;;23.17;;
4638;SDS011;2332;38.646;-9.154;2024-02-04T04:02:13;45.60;;;23.47;;
4638;SDS011;2332;38.646;-9.154;2024-02-04T04:04:42;43.73;;;24.30;;
4638;SDS011;2332;38.646;-9.154;2024-02-04T04:07:08;45.00;;;23.93;;
4638;SDS011;2332;38.646;-9.154;2024-02-04T04:09:34;48.83;;;24.30;;
4638;SDS011;2332;38.646;-9.154;2024-02-04T04:11:59;39.13;;;23.97;;
4638;SDS011;2332;38.646;-9.154;2024-02-04T04:14:24;42.80;;;23.83;;
4638;SDS011;2332;38.646;-9.154;2024-02-04T04:16:50;47.47;;;23.83;;
4638;SDS011;2332;38.646;-9.154;2024-02-04T04:19:15;41.13;;;24.37;;
4638;SDS011;2332;38.646;-9.154;2024-02-04T04:21:40;48.80;;;25.40;;
4638;SDS011;2332;38.646;-9.154;2024-02-04T04:24:06;47.07;;;24.67;;
4638;SDS011;2332;38.646;-9.154;2024-02-04T04:26:31;40.50;;;22.73;;
4638;SDS011;2332;38.646;-9.154;2024-02-04T04:28:58;35.87;;;22.60;;
4638;SDS011;2332;38.646;-9.154;2024-02-04T04:31:23;48.37;;;23.93;;
4638;SDS011;2332;38.646;-9.154;2024-02-04T04:33:49;41.53;;;22.40;;
4638;SDS011;2332;38.646;-9.154;2024-02-04T04:36:14;37.83;;;22.80;;
4638;SDS011;2332;38.646;-9.154;2024-02-04T04:38:39;40.50;;;22.37;;
4638;SDS011;2332;38.646;-9.154;2024-02-04T04:41:05;36.37;;;22.80;;
4638;SDS011;2332;38.646;-9.154;2024-02-04T04:43:30;39.93;;;22.27;;
4638;SDS011;2332;38.646;-9.154;2024-02-04T04:45:56;38.90;;;21.00;;
4638;SDS011;2332;38.646;-9.154;2024-02-04T04:48:21;50.33;;;23.13;;
4638;SDS011;2332;38.646;-9.154;2024-02-04T04:50:46;43.63;;;22.53;;
4638;SDS011;2332;38.646;-9.154;2024-02-04T04:53:12;43.97;;;23.00;;
4638;SDS011;2332;38.646;-9.154;2024-02-04T04:55:37;44.23;;;21.37;;
4638;SDS011;2332;38.646;-9.154;2024-02-04T04:58:03;34.93;;;20.97;;
4638;SDS011;2332;38.646;-9.154;2024-02-04T05:00:28;38.07;;;22.20;;
4638;SDS011;2332;38.646;-9.154;2024-02-04T05:02:53;47.60;;;22.23;;
4638;SDS011;2332;38.646;-9.154;2024-02-04T05:05:19;42.80;;;21.50;;
4638;SDS011;2332;38.646;-9.154;2024-02-04T05:07:44;44.30;;;20.77;;
4638;SDS011;2332;38.646;-9.154;2024-02-04T05:10:11;39.07;;;21.17;;
4638;SDS011;2332;38.646;-9.154;2024-02-04T05:12:37;39.80;;;21.67;;
4638;SDS011;2332;38.646;-9.154;2024-02-04T05:15:02;39.83;;;22.00;;
4638;SDS011;2332;38.646;-9.154;2024-02-04T05:17:28;39.43;;;21.40;;
4638;SDS011;2332;38.646;-9.154;2024-02-04T05:19:53;39.83;;;21.97;;
4638;SDS011;2332;38.646;-9.154;2024-02-04T05:22:19;43.07;;;22.50;;
4638;SDS011;2332;38.646;-9.154;2024-02-04T05:24:44;48.47;;;21.43;;
4638;SDS011;2332;38.646;-9.154;2024-02-04T05:27:09;37.60;;;20.60;;
4638;SDS011;2332;38.646;-9.154;2024-02-04T05:29:35;47.10;;;21.00;;
4638;SDS011;2332;38.646;-9.154;2024-02-04T05:32:00;37.60;;;21.63;;
4638;SDS011;2332;38.646;-9.154;2024-02-04T05:34:26;38.27;;;20.27;;
4638;SDS011;2332;38.646;-9.154;2024-02-04T05:36:51;38.50;;;18.40;;
4638;SDS011;2332;38.646;-9.154;2024-02-04T05:39:16;37.60;;;19.43;;
4638;SDS011;2332;38.646;-9.154;2024-02-04T05:41:42;38.63;;;19.00;;
4638;SDS011;2332;38.646;-9.154;2024-02-04T05:44:08;37.47;;;19.00;;
4638;SDS011;2332;38.646;-9.154;2024-02-04T05:46:36;31.67;;;19.07;;
4638;SDS011;2332;38.646;-9.154;2024-02-04T05:49:02;29.03;;;16.90;;
4638;SDS011;2332;38.646;-9.154;2024-02-04T05:51:27;27.80;;;16.63;;
4638;SDS011;2332;38.646;-9.154;2024-02-04T05:53:53;31.27;;;17.97;;
4638;SDS011;2332;38.646;-9.154;2024-02-04T05:56:19;44.23;;;19.53;;
4638;SDS011;2332;38.646;-9.154;2024-02-04T05:58:45;35.83;;;18.50;;
4638;SDS011;2332;38.646;-9.154;2024-02-04T06:01:10;32.87;;;18.57;;
4638;SDS011;2332;38.646;-9.154;2024-02-04T06:03:36;34.00;;;18.97;;
4638;SDS011;2332;38.646;-9.154;2024-02-04T06:06:01;37.00;;;19.90;;
4638;SDS011;2332;38.646;-9.154;2024-02-04T06:08:27;40.17;;;19.80;;
4638;SDS011;2332;38.646;-9.154;2024-02-04T06:10:52;32.50;;;19.97;;
4638;SDS011;2332;38.646;-9.154;2024-02-04T06:13:17;32.27;;;20.07;;
4638;SDS011;2332;38.646;-9.154;2024-02-04T06:15:43;36.73;;;20.33;;
4638;SDS011;2332;38.646;-9.154;2024-02-04T06:18:08;37.37;;;20.40;;
4638;SDS011;2332;38.646;-9.154;2024-02-04T06:20:33;37.50;;;20.50;;
4638;SDS011;2332;38.646;-9.154;2024-02-04T06:22:59;32.80;;;18.30;;
4638;SDS011;2332;38.646;-9.154;2024-02-04T06:25:25;38.77;;;17.90;;
4638;SDS011;2332;38.646;-9.154;2024-02-04T06:27:51;31.50;;;18.50;;
4638;SDS011;2332;38.646;-9.154;2024-02-04T06:30:17;33.17;;;18.57;;
4638;SDS011;2332;38.646;-9.154;2024-02-04T06:32:42;30.57;;;18.37;;
4638;SDS011;2332;38.646;-9.154;2024-02-04T06:35:08;34.70;;;18.87;;
4638;SDS011;2332;38.646;-9.154;2024-02-04T06:37:33;33.77;;;19.80;;
4638;SDS011;2332;38.646;-9.154;2024-02-04T06:39:58;43.80;;;19.60;;
4638;SDS011;2332;38.646;-9.154;2024-02-04T06:42:24;42.57;;;20.37;;
4638;SDS011;2332;38.646;-9.154;2024-02-04T06:44:49;37.27;;;19.37;;
4638;SDS011;2332;38.646;-9.154;2024-02-04T06:47:14;39.03;;;19.33;;
4638;SDS011;2332;38.646;-9.154;2024-02-04T06:49:43;34.30;;;18.50;;
4638;SDS011;2332;38.646;-9.154;2024-02-04T06:52:09;36.43;;;17.43;;
4638;SDS011;2332;38.646;-9.154;2024-02-04T06:54:34;34.53;;;17.83;;
4638;SDS011;2332;38.646;-9.154;2024-02-04T06:56:59;36.43;;;19.10;;
4638;SDS011;2332;38.646;-9.154;2024-02-04T06:59:25;34.23;;;18.50;;
4638;SDS011;2332;38.646;-9.154;2024-02-04T07:01:50;34.50;;;17.80;;
4638;SDS011;2332;38.646;-9.154;2024-02-04T07:04:17;29.90;;;17.43;;
4638;SDS011;2332;38.646;-9.154;2024-02-04T07:06:43;28.67;;;17.50;;
4638;SDS011;2332;38.646;-9.154;2024-02-04T07:09:08;32.50;;;17.13;;
4638;SDS011;2332;38.646;-9.154;2024-02-04T07:11:34;31.50;;;17.93;;
4638;SDS011;2332;38.646;-9.154;2024-02-04T07:13:59;30.43;;;16.70;;
4638;SDS011;2332;38.646;-9.154;2024-02-04T07:16:25;34.87;;;17.10;;
4638;SDS011;2332;38.646;-9.154;2024-02-04T07:18:51;33.33;;;17.40;;
4638;SDS011;2332;38.646;-9.154;2024-02-04T07:21:16;31.77;;;16.97;;
4638;SDS011;2332;38.646;-9.154;2024-02-04T07:23:41;30.77;;;15.93;;
4638;SDS011;2332;38.646;-9.154;2024-02-04T07:26:07;32.37;;;16.73;;
4638;SDS011;2332;38.646;-9.154;2024-02-04T07:28:32;25.50;;;16.00;;
4638;SDS011;2332;38.646;-9.154;2024-02-04T07:30:58;27.63;;;16.40;;
4638;SDS011;2332;38.646;-9.154;2024-02-04T07:33:23;28.00;;;16.17;;
4638;SDS011;2332;38.646;-9.154;2024-02-04T07:35:48;30.40;;;16.23;;
4638;SDS011;2332;38.646;-9.154;2024-02-04T07:38:14;28.20;;;16.83;;
4638;SDS011;2332;38.646;-9.154;2024-02-04T07:40:39;36.50;;;19.07;;
4638;SDS011;2332;38.646;-9.154;2024-02-04T07:43:04;36.23;;;17.10;;
4638;SDS011;2332;38.646;-9.154;2024-02-04T07:45:30;29.93;;;18.40;;
4638;SDS011;2332;38.646;-9.154;2024-02-04T07:47:55;33.67;;;17.60;;
4638;SDS011;2332;38.646;-9.154;2024-02-04T07:50:21;35.30;;;17.60;;
4638;SDS011;2332;38.646;-9.154;2024-02-04T07:52:46;41.93;;;18.23;;
4638;SDS011;2332;38.646;-9.154;2024-02-04T07:55:12;35.73;;;18.40;;
4638;SDS011;2332;38.646;-9.154;2024-02-04T07:57:37;25.47;;;15.50;;
4638;SDS011;2332;38.646;-9.154;2024-02-04T08:00:03;28.67;;;16.67;;
4638;SDS011;2332;38.646;-9.154;2024-02-04T08:02:30;26.00;;;15.57;;
4638;SDS011;2332;38.646;-9.154;2024-02-04T08:04:56;28.67;;;15.97;;
4638;SDS011;2332;38.646;-9.154;2024-02-04T08:07:21;25.50;;;14.97;;
4638;SDS011;2332;38.646;-9.154;2024-02-04T08:09:46;30.53;;;14.10;;
4638;SDS011;2332;38.646;-9.154;2024-02-04T08:12:12;27.67;;;15.17;;
4638;SDS011;2332;38.646;-9.154;2024-02-04T08:14:37;25.33;;;14.60;;
4638;SDS011;2332;38.646;-9.154;2024-02-04T08:17:03;23.80;;;13.80;;
4638;SDS011;2332;38.646;-9.154;2024-02-04T08:19:28;22.90;;;13.30;;
4638;SDS011;2332;38.646;-9.154;2024-02-04T08:21:54;24.47;;;13.33;;
4638;SDS011;2332;38.646;-9.154;2024-02-04T08:24:19;23.13;;;13.57;;
4638;SDS011;2332;38.646;-9.154;2024-02-04T08:26:44;26.07;;;13.93;;
4638;SDS011;2332;38.646;-9.154;2024-02-04T08:29:10;26.83;;;14.27;;
4638;SDS011;2332;38.646;-9.154;2024-02-04T08:31:36;27.03;;;14.13;;
4638;SDS011;2332;38.646;-9.154;2024-02-04T08:34:02;23.57;;;13.90;;
4638;SDS011;2332;38.646;-9.154;2024-02-04T08:36:28;26.93;;;14.83;;
4638;SDS011;2332;38.646;-9.154;2024-02-04T08:38:55;26.30;;;14.47;;
4638;SDS011;2332;38.646;-9.154;2024-02-04T08:41:20;24.57;;;14.27;;
4638;SDS011;2332;38.646;-9.154;2024-02-04T08:43:45;34.20;;;15.30;;
4638;SDS011;2332;38.646;-9.154;2024-02-04T08:46:11;27.50;;;14.60;;
4638;SDS011;2332;38.646;-9.154;2024-02-04T08:48:37;31.43;;;14.50;;
4638;SDS011;2332;38.646;-9.154;2024-02-04T08:51:02;23.90;;;14.27;;
4638;SDS011;2332;38.646;-9.154;2024-02-04T08:53:28;30.20;;;13.47;;
4638;SDS011;2332;38.646;-9.154;2024-02-04T08:55:53;21.47;;;14.00;;
4638;SDS011;2332;38.646;-9.154;2024-02-04T08:58:19;27.30;;;14.17;;
4638;SDS011;2332;38.646;-9.154;2024-02-04T09:00:44;26.97;;;15.10;;
4638;SDS011;2332;38.646;-9.154;2024-02-04T09:03:09;19.90;;;13.63;;
4638;SDS011;2332;38.646;-9.154;2024-02-04T09:05:35;26.93;;;13.87;;
4638;SDS011;2332;38.646;-9.154;2024-02-04T09:08:00;23.40;;;13.67;;
4638;SDS011;2332;38.646;-9.154;2024-02-04T09:10:26;24.50;;;14.50;;
4638;SDS011;2332;38.646;-9.154;2024-02-04T09:12:52;28.43;;;14.33;;
4638;SDS011;2332;38.646;-9.154;2024-02-04T09:15:17;20.10;;;12.50;;
4638;SDS011;2332;38.646;-9.154;2024-02-04T09:17:43;24.70;;;12.10;;
4638;SDS011;2332;38.646;-9.154;2024-02-04T09:20:08;32.20;;;13.37;;
4638;SDS011;2332;38.646;-9.154;2024-02-04T09:22:34;28.37;;;14.50;;
4638;SDS011;2332;38.646;-9.154;2024-02-04T09:24:59;20.00;;;14.00;;
4638;SDS011;2332;38.646;-9.154;2024-02-04T09:27:25;21.03;;;13.80;;
4638;SDS011;2332;38.646;-9.154;2024-02-04T09:29:50;33.43;;;14.13;;
4638;SDS011;2332;38.646;-9.154;2024-02-04T09:32:16;22.33;;;14.00;;
4638;SDS011;2332;38.646;-9.154;2024-02-04T09:34:44;24.83;;;13.57;;
4638;SDS011;2332;38.646;-9.154;2024-02-04T09:37:09;29.43;;;13.33;;
4638;SDS011;2332;38.646;-9.154;2024-02-04T09:39:35;26.90;;;14.37;;
4638;SDS011;2332;38.646;-9.154;2024-02-04T09:42:01;22.10;;;14.10;;
4638;SDS011;2332;38.646;-9.154;2024-02-04T09:44:26;21.93;;;13.60;;
4638;SDS011;2332;38.646;-9.154;2024-02-04T09:46:53;24.23;;;15.00;;
4638;SDS011;2332;38.646;-9.154;2024-02-04T09:49:18;21.40;;;14.03;;
4638;SDS011;2332;38.646;-9.154;2024-02-04T09:51:44;24.30;;;14.57;;
4638;SDS011;2332;38.646;-9.154;2024-02-04T09:54:10;27.90;;;15.47;;
4638;SDS011;2332;38.646;-9.154;2024-02-04T09:56:37;22.10;;;14.20;;
4638;SDS011;2332;38.646;-9.154;2024-02-04T09:59:02;24.67;;;14.30;;
4638;SDS011;2332;38.646;-9.154;2024-02-04T10:01:28;21.77;;;13.90;;
4638;SDS011;2332;38.646;-9.154;2024-02-04T10:03:53;19.40;;;12.83;;
4638;SDS011;2332;38.646;-9.154;2024-02-04T10:06:19;23.93;;;13.20;;
4638;SDS011;2332;38.646;-9.154;2024-02-04T10:08:44;21.40;;;13.67;;
4638;SDS011;2332;38.646;-9.154;2024-02-04T10:11:11;24.17;;;13.23;;
4638;SDS011;2332;38.646;-9.154;2024-02-04T10:13:46;24.10;;;14.47;;
4638;SDS011;2332;38.646;-9.154;2024-02-04T10:16:12;26.23;;;12.60;;
4638;SDS011;2332;38.646;-9.154;2024-02-04T10:18:40;25.30;;;13.57;;
4638;SDS011;2332;38.646;-9.154;2024-02-04T10:21:14;22.53;;;13.83;;
4638;SDS011;2332;38.646;-9.154;2024-02-04T10:23:39;26.67;;;13.97;;
4638;SDS011;2332;38.646;-9.154;2024-02-04T10:26:04;21.77;;;12.47;;
4638;SDS011;2332;38.646;-9.154;2024-02-04T10:28:30;21.40;;;13.33;;
4638;SDS011;2332;38.646;-9.154;2024-02-04T10:30:55;25.57;;;13.57;;
4638;SDS011;2332;38.646;-9.154;2024-02-04T10:33:21;22.47;;;14.30;;
4638;SDS011;2332;38.646;-9.154;2024-02-04T10:35:46;25.00;;;13.80;;
4638;SDS011;2332;38.646;-9.154;2024-02-04T10:38:11;20.77;;;13.87;;
4638;SDS011;2332;38.646;-9.154;2024-02-04T10:40:37;26.30;;;13.80;;
4638;SDS011;2332;38.646;-9.154;2024-02-04T10:43:03;24.50;;;12.97;;
4638;SDS011;2332;38.646;-9.154;2024-02-04T10:45:32;20.00;;;12.00;;
4638;SDS011;2332;38.646;-9.154;2024-02-04T10:47:58;24.90;;;12.57;;
4638;SDS011;2332;38.646;-9.154;2024-02-04T10:50:25;28.50;;;14.40;;
4638;SDS011;2332;38.646;-9.154;2024-02-04T10:52:52;27.33;;;13.27;;
4638;SDS011;2332;38.646;-9.154;2024-02-04T10:55:19;25.43;;;13.13;;
4638;SDS011;2332;38.646;-9.154;2024-02-04T10:57:47;26.90;;;13.87;;
4638;SDS011;2332;38.646;-9.154;2024-02-04T11:00:13;20.50;;;13.47;;
4638;SDS011;2332;38.646;-9.154;2024-02-04T11:02:39;18.93;;;13.40;;
4638;SDS011;2332;38.646;-9.154;2024-02-04T11:05:05;25.77;;;13.87;;
4638;SDS011;2332;38.646;-9.154;2024-02-04T11:07:32;25.00;;;13.37;;
4638;SDS011;2332;38.646;-9.154;2024-02-04T11:09:57;23.60;;;14.30;;
4638;SDS011;2332;38.646;-9.154;2024-02-04T11:12:23;25.70;;;13.57;;
4638;SDS011;2332;38.646;-9.154;2024-02-04T11:14:51;24.63;;;13.53;;
4638;SDS011;2332;38.646;-9.154;2024-02-04T11:17:24;27.40;;;13.03;;
4638;SDS011;2332;38.646;-9.154;2024-02-04T11:22:30;25.80;;;12.83;;
4638;SDS011;2332;38.646;-9.154;2024-02-04T11:27:34;24.87;;;13.33;;
4638;SDS011;2332;38.646;-9.154;2024-02-04T11:29:59;20.97;;;12.60;;
4638;SDS011;2332;38.646;-9.154;2024-02-04T11:32:25;24.07;;;13.20;;
4638;SDS011;2332;38.646;-9.154;2024-02-04T11:34:51;24.27;;;13.07;;
4638;SDS011;2332;38.646;-9.154;2024-02-04T11:37:17;19.40;;;12.97;;
4638;SDS011;2332;38.646;-9.154;2024-02-04T11:39:47;25.80;;;12.80;;
4638;SDS011;2332;38.646;-9.154;2024-02-04T11:42:16;24.60;;;13.03;;
4638;SDS011;2332;38.646;-9.154;2024-02-04T11:44:41;21.00;;;12.50;;
4638;SDS011;2332;38.646;-9.154;2024-02-04T11:47:09;21.50;;;12.90;;
4638;SDS011;2332;38.646;-9.154;2024-02-04T11:49:35;19.47;;;12.60;;
4638;SDS011;2332;38.646;-9.154;2024-02-04T11:52:03;28.07;;;12.83;;
4638;SDS011;2332;38.646;-9.154;2024-02-04T11:54:29;20.20;;;12.80;;
4638;SDS011;2332;38.646;-9.154;2024-02-04T11:56:55;20.60;;;11.70;;
4638;SDS011;2332;38.646;-9.154;2024-02-04T11:59:23;21.20;;;13.60;;
4638;SDS011;2332;38.646;-9.154;2024-02-04T12:01:49;23.43;;;12.60;;
4638;SDS011;2332;38.646;-9.154;2024-02-04T12:04:15;22.17;;;12.53;;
4638;SDS011;2332;38.646;-9.154;2024-02-04T12:06:41;23.47;;;12.70;;
4638;SDS011;2332;38.646;-9.154;2024-02-04T12:09:10;23.30;;;13.53;;
4638;SDS011;2332;38.646;-9.154;2024-02-04T12:11:36;18.63;;;11.90;;
4638;SDS011;2332;38.646;-9.154;2024-02-04T12:14:03;21.07;;;13.07;;
4638;SDS011;2332;38.646;-9.154;2024-02-04T12:16:28;25.33;;;12.93;;
4638;SDS011;2332;38.646;-9.154;2024-02-04T12:18:54;20.97;;;12.20;;
4638;SDS011;2332;38.646;-9.154;2024-02-04T12:21:19;17.60;;;11.80;;
4638;SDS011;2332;38.646;-9.154;2024-02-04T12:23:45;23.47;;;12.43;;
4638;SDS011;2332;38.646;-9.154;2024-02-04T12:26:10;22.30;;;12.40;;
4638;SDS011;2332;38.646;-9.154;2024-02-04T12:28:36;21.53;;;13.00;;
4638;SDS011;2332;38.646;-9.154;2024-02-04T12:31:01;21.40;;;11.57;;
4638;SDS011;2332;38.646;-9.154;2024-02-04T12:33:28;21.73;;;12.10;;
4638;SDS011;2332;38.646;-9.154;2024-02-04T12:35:53;20.13;;;11.93;;
4638;SDS011;2332;38.646;-9.154;2024-02-04T12:38:21;19.37;;;12.47;;
4638;SDS011;2332;38.646;-9.154;2024-02-04T12:40:46;21.23;;;12.43;;
4638;SDS011;2332;38.646;-9.154;2024-02-04T12:43:11;16.67;;;11.70;;
4638;SDS011;2332;38.646;-9.154;2024-02-04T12:45:37;20.00;;;11.63;;
4638;SDS011;2332;38.646;-9.154;2024-02-04T12:48:03;21.60;;;12.60;;
4638;SDS011;2332;38.646;-9.154;2024-02-04T12:50:28;18.93;;;12.77;;
4638;SDS011;2332;38.646;-9.154;2024-02-04T12:53:04;22.50;;;12.87;;
4638;SDS011;2332;38.646;-9.154;2024-02-04T12:55:30;19.60;;;12.10;;
4638;SDS011;2332;38.646;-9.154;2024-02-04T13:00:29;21.70;;;12.77;;
4638;SDS011;2332;38.646;-9.154;2024-02-04T13:02:54;22.03;;;14.10;;
4638;SDS011;2332;38.646;-9.154;2024-02-04T13:05:23;27.80;;;12.50;;
4638;SDS011;2332;38.646;-9.154;2024-02-04T13:07:54;18.43;;;11.63;;
4638;SDS011;2332;38.646;-9.154;2024-02-04T13:10:26;17.80;;;10.90;;
4638;SDS011;2332;38.646;-9.154;2024-02-04T13:12:58;16.70;;;11.37;;
4638;SDS011;2332;38.646;-9.154;2024-02-04T13:15:25;17.80;;;12.23;;
4638;SDS011;2332;38.646;-9.154;2024-02-04T13:17:50;20.97;;;13.80;;
4638;SDS011;2332;38.646;-9.154;2024-02-04T13:20:15;17.50;;;11.10;;
4638;SDS011;2332;38.646;-9.154;2024-02-04T13:22:41;23.10;;;12.87;;
4638;SDS011;2332;38.646;-9.154;2024-02-04T13:25:06;19.70;;;12.60;;
4638;SDS011;2332;38.646;-9.154;2024-02-04T13:27:32;22.43;;;11.83;;
4638;SDS011;2332;38.646;-9.154;2024-02-04T13:29:57;24.20;;;13.30;;
4638;SDS011;2332;38.646;-9.154;2024-02-04T13:32:22;18.37;;;12.03;;
4638;SDS011;2332;38.646;-9.154;2024-02-04T13:34:48;21.37;;;11.80;;
4638;SDS011;2332;38.646;-9.154;2024-02-04T13:37:14;28.07;;;12.87;;
4638;SDS011;2332;38.646;-9.154;2024-02-04T13:39:39;20.00;;;12.40;;
4638;SDS011;2332;38.646;-9.154;2024-02-04T13:42:05;20.37;;;12.87;;
4638;SDS011;2332;38.646;-9.154;2024-02-04T13:44:30;25.57;;;14.40;;
4638;SDS011;2332;38.646;-9.154;2024-02-04T13:46:56;22.17;;;12.90;;
4638;SDS011;2332;38.646;-9.154;2024-02-04T13:49:21;18.60;;;11.50;;
4638;SDS011;2332;38.646;-9.154;2024-02-04T13:51:46;21.30;;;13.03;;
4638;SDS011;2332;38.646;-9.154;2024-02-04T13:54:12;24.43;;;12.43;;
4638;SDS011;2332;38.646;-9.154;2024-02-04T13:56:40;19.40;;;12.10;;
4638;SDS011;2332;38.646;-9.154;2024-02-04T13:59:06;18.57;;;12.63;;
4638;SDS011;2332;38.646;-9.154;2024-02-04T14:01:33;18.47;;;12.00;;
4638;SDS011;2332;38.646;-9.154;2024-02-04T14:03:59;18.80;;;13.93;;
4638;SDS011;2332;38.646;-9.154;2024-02-04T14:06:24;19.33;;;12.50;;
4638;SDS011;2332;38.646;-9.154;2024-02-04T14:08:50;17.17;;;11.80;;
4638;SDS011;2332;38.646;-9.154;2024-02-04T14:11:15;18.30;;;12.10;;
4638;SDS011;2332;38.646;-9.154;2024-02-04T14:13:40;26.33;;;14.03;;
4638;SDS011;2332;38.646;-9.154;2024-02-04T14:16:06;19.63;;;12.40;;
4638;SDS011;2332;38.646;-9.154;2024-02-04T14:18:34;18.83;;;12.67;;
4638;SDS011;2332;38.646;-9.154;2024-02-04T14:20:59;20.40;;;13.57;;
4638;SDS011;2332;38.646;-9.154;2024-02-04T14:23:25;23.30;;;12.20;;
4638;SDS011;2332;38.646;-9.154;2024-02-04T14:25:50;19.13;;;12.50;;
4638;SDS011;2332;38.646;-9.154;2024-02-04T14:28:16;20.13;;;12.00;;
4638;SDS011;2332;38.646;-9.154;2024-02-04T14:30:41;21.23;;;12.03;;
4638;SDS011;2332;38.646;-9.154;2024-02-04T14:33:07;23.73;;;11.53;;
4638;SDS011;2332;38.646;-9.154;2024-02-04T14:35:33;19.47;;;11.83;;